Flight Track Log - Related Links

Times and Time Zones

All times are in EDT time to prevent confusion due to time zone crossing. See the EJA922 flight status page for this flight to view local times or setup timezone preferences in your user account.

Time Position Orientation Groundspeed Altitude Reporting Facility
EDT Latitude Longitude Course Direction KTS MPH feet Rate Location/Type
Thu 02:49:19 PM 39.2733 -106.8933 287° West 287 330 9,900  Level Denver Center
Thu 02:50:33 PM 39.2983 -107.0014 287° West 279 321 12,900 2,471 Climbing Denver Center
Thu 02:51:35 PM 39.3792 -107.1206 311° West 367 422 15,500 2,419 Climbing Denver Center
Thu 02:52:37 PM 39.4814 -107.1061 North 382 440 17,900 2,032 Climbing Denver Center
Thu 02:53:39 PM 39.5694 -107.0375 31° Northeast 386 444 19,700 2,208 Climbing Denver Center
Thu 02:54:42 PM 39.6778 -106.9789 23° Northeast 389 448 22,500 2,400 Climbing Denver Center
Thu 02:55:44 PM 39.7819 -106.9478 13° North 376 433 24,700 1,805 Climbing Denver Center
Thu 02:56:45 PM 39.8636 -106.9239 13° North 375 432 26,200 1,790 Climbing Denver Center
Thu 02:57:48 PM 39.9900 -106.8447 26° Northeast 384 442 28,400 1,694 Climbing Denver Center
Thu 02:58:49 PM 40.0556 -106.7711 41° Northeast 386 444 29,700 1,597 Climbing Denver Center
Thu 02:59:52 PM 40.1639 -106.6481 41° Northeast 403 464 31,700 1,728 Climbing Denver Center
Thu 03:00:54 PM 40.1761 -106.5075 83° East 406 467 33,300 1,403 Climbing Denver Center
Thu 03:01:56 PM 40.1233 -106.3719 117° Southeast 417 480 34,600 823 Climbing Denver Center
Thu 03:02:58 PM 40.0806 -106.2600 117° Southeast 428 493 35,000 194 Climbing Denver Center
Thu 03:04:00 PM 40.0300 -106.0667 109° East 471 542 35,000  Level Denver Center
Thu 03:05:02 PM 40.0008 -105.8903 102° East 494 568 35,000  Level Denver Center
Thu 03:06:05 PM 39.9744 -105.6678 99° East 512 589 35,000  Level Denver Center
Thu 03:07:07 PM 39.9494 -105.4842 100° East 512 589 35,000  Level Denver Center
Thu 03:08:09 PM 39.9250 -105.3014 100° East 511 588 35,000  Level Denver Center
Thu 03:09:11 PM 39.9011 -105.1178 100° East 508 585 35,000  Level Denver Center
Thu 03:10:25 PM 39.8703 -104.8981 100° East 513 590 35,000 176 Level Denver Center
Thu 03:11:27 PM 39.8472 -104.7158 99° East 506 582 35,400 968 Climbing Denver Center
Thu 03:12:29 PM 39.8225 -104.5364 100° East 501 577 37,000 1,392 Climbing Denver Center
Thu 03:13:32 PM 39.7906 -104.3211 101° East 503 579 38,300 960 Climbing Denver Center
Thu 03:14:34 PM 39.7667 -104.1525 100° East 490 564 39,000 339 Climbing Denver Center
Thu 03:15:36 PM 39.7408 -103.9753 101° East 491 565 39,000  Level Denver Center
Thu 03:16:38 PM 39.7164 -103.7986 100° East 491 565 39,000 339 Level Denver Center
Thu 03:17:40 PM 39.6900 -103.6219 101° East 491 565 39,700 629 Climbing Denver Center
Thu 03:18:42 PM 39.6689 -103.4817 101° East 496 571 40,300 629 Climbing Denver Center
Thu 03:19:44 PM 39.6381 -103.2753 101° East 487 560 41,000 339 Climbing Denver Center
Thu 03:20:46 PM 39.6058 -103.0667 101° East 491 565 41,000 48 Level Denver Center
Thu 03:21:48 PM 39.5792 -102.8911 101° East 496 571 41,100 387 Climbing Denver Center
Thu 03:22:50 PM 39.5814 -102.7183 89° East 485 558 41,800 581 Climbing Denver Center
Thu 03:23:52 PM 39.5958 -102.5458 84° East 482 555 42,300 576 Climbing Denver Center
Thu 03:24:55 PM 39.6119 -102.3467 84° East 481 554 43,000 624 Climbing Denver Center
Thu 03:25:57 PM 39.6264 -102.1836 83° East 478 550 43,600 629 Climbing Denver Center
Thu 03:26:59 PM 39.6411 -101.9933 84° East 475 547 44,300 629 Climbing Denver Center
Thu 03:28:01 PM 39.6542 -101.8308 84° East 474 545 44,900 339 Climbing Denver Center
Thu 03:29:03 PM 39.6669 -101.6711 84° East 468 539 45,000 48 Climbing Denver Center
Thu 03:30:05 PM 39.6800 -101.4883 85° East 457 526 45,000  Level Denver Center
Thu 03:31:07 PM 39.6908 -101.3317 85° East 457 526 45,000  Level Denver Center
Thu 03:32:09 PM 39.7042 -101.1553 84° East 444 511 45,000  Level Denver Center
Thu 03:33:11 PM 39.7147 -101.0022 85° East 445 512 45,000  Level Denver Center
Thu 03:34:13 PM 39.7267 -100.8258 85° East 442 509 45,000  Level Denver Center
Thu 03:35:15 PM 39.7369 -100.6728 85° East 445 512 45,000 194 Level Denver Center
Thu 03:36:17 PM 39.7489 -100.4933 85° East 447 514 45,400 384 Climbing Denver Center
Thu 03:37:20 PM 39.7592 -100.3397 85° East 448 516 45,800 265 Climbing Denver Center
Thu 03:38:33 PM 39.7708 -100.1583 85° East 452 520 46,000 353 Climbing Denver Center
Thu 03:39:36 PM 39.7825 -99.9717 85° East 460 529 46,600 480 Climbing Denver Center
Thu 03:40:38 PM 39.7942 -99.7722 86° East 461 531 47,000 194 Climbing Denver Center
Thu 03:41:40 PM 39.8036 -99.6025 86° East 469 540 47,000  Level Denver Center
Thu 03:42:42 PM 39.8108 -99.4667 86° East 471 542 47,000  Level Denver Center
Thu 03:43:44 PM 39.8239 -99.2611 85° East 476 548 47,000  Level Denver Center
Thu 03:44:46 PM 39.8322 -99.0878 86° East 481 554 47,000  Level Denver Center
Thu 03:45:48 PM 39.8397 -98.9503 86° East 479 551 47,000  Level Denver Center
Thu 03:46:31 PM 39.8489 -98.7825 86° East 478 550 47,000  Level Minneapolis Center
Thu 03:47:33 PM 39.8572 -98.6097 86° East 479 551 47,000  Level Minneapolis Center
Thu 03:48:36 PM 39.8653 -98.4372 86° East 480 552 47,000  Level Minneapolis Center
Thu 03:49:38 PM 39.8747 -98.2303 87° East 479 551 47,000  Level Minneapolis Center
Thu 03:50:40 PM 39.8825 -98.0603 87° East 475 547 47,000  Level Minneapolis Center
Thu 03:51:42 PM 39.8897 -97.8886 87° East 476 548 47,000  Level Minneapolis Center
Thu 03:52:44 PM 39.8981 -97.7167 86° East 477 549 47,000  Level Minneapolis Center
Thu 03:53:58 PM 39.9056 -97.5111 87° East 475 547 47,000  Level Minneapolis Center
Thu 03:55:00 PM 39.9117 -97.3403 87° East 474 545 47,000  Level Minneapolis Center
Thu 03:56:03 PM 39.9203 -97.1344 87° East 470 541 47,000  Level Minneapolis Center
Thu 03:57:05 PM 39.9261 -96.9642 87° East 471 542 47,000  Level Minneapolis Center
Thu 03:58:07 PM 39.9317 -96.7947 87° East 471 542 47,000  Level Minneapolis Center
Thu 03:59:09 PM 39.9372 -96.6250 88° East 471 542 47,000  Level Minneapolis Center
Thu 04:00:24 PM 39.9433 -96.4197 88° East 473 544 47,000  Level Minneapolis Center
Thu 04:01:24 PM 39.9492 -96.2506 87° East 470 541 47,000  Level Kansas City Center
Thu 04:02:24 PM 39.9556 -96.0714 87° East 474 545 47,000  Level Kansas City Center
Thu 04:03:25 PM 39.9603 -95.8794 88° East 474 545 47,000  Level Kansas City Center
Thu 04:04:29 PM 39.9650 -95.7167 88° East 471 542 47,000  Level Kansas City Center
Thu 04:05:30 PM 39.9689 -95.5489 88° East 478 550 47,000  Level Kansas City Center
Thu 04:06:34 PM 39.9725 -95.3578 89° East 471 542 47,000  Level Kansas City Center
Thu 04:07:35 PM 39.9761 -95.1931 88° East 473 544 47,000  Level Kansas City Center
Thu 04:08:35 PM 39.9792 -95.0006 89° East 473 544 47,000  Level Kansas City Center
Thu 04:09:40 PM 39.9819 -94.8356 89° East 474 545 47,000  Level Kansas City Center
Thu 04:10:40 PM 39.9856 -94.6428 89° East 474 545 47,000  Level Kansas City Center
Thu 04:11:44 PM 39.9872 -94.4767 89° East 476 548 47,000  Level Kansas City Center
Thu 04:12:45 PM 39.9897 -94.2836 89° East 476 548 47,000  Level Kansas City Center
Thu 04:13:46 PM 39.9917 -94.1181 89° East 476 548 47,000  Level Kansas City Center
Thu 04:15:00 PM 39.9840 -93.9177 93° East  Level FlightAware Approximate
Thu 04:15:51 PM 39.9933 -93.7600 93° East 479 551 47,000  Level Kansas City Center
Thu 04:16:54 PM 39.9933 -93.5875 90° East 480 552 47,000  Level Kansas City Center
Thu 04:17:56 PM 39.9964 -93.4161 89° East 480 552 47,000  Level Kansas City Center
Thu 04:18:57 PM 39.9961 -93.2111 90° East 477 549 47,000  Level Kansas City Center
Thu 04:20:00 PM 39.9969 -93.0403 90° East 478 550 47,000  Level Kansas City Center
Thu 04:21:01 PM 39.9975 -92.8686 90° East 480 552 47,000  Level Kansas City Center
Thu 04:22:02 PM 39.9961 -92.6989 91° East 479 551 47,000  Level Kansas City Center
Thu 04:23:05 PM 39.9967 -92.4939 90° East 482 555 47,000  Level Kansas City Center
Thu 04:24:06 PM 39.9956 -92.3225 90° East 482 555 47,000  Level Kansas City Center
Thu 04:25:10 PM 39.9956 -92.1517 90° East 481 554 47,000  Level Kansas City Center
Thu 04:26:11 PM 39.9942 -91.9800 91° East 481 554 47,000  Level Kansas City Center
Thu 04:27:12 PM 39.9919 -91.7761 91° East 477 549 47,000  Level Kansas City Center
Thu 04:28:15 PM 39.9906 -91.6028 91° East 480 552 47,000  Level Kansas City Center
Thu 04:29:16 PM 39.9889 -91.4322 91° East 478 550 47,000  Level Kansas City Center
Thu 04:30:20 PM 39.9850 -91.2611 92° East 477 549 47,000  Level Kansas City Center
Thu 04:31:21 PM 39.9839 -91.0892 90° East 478 550 47,000  Level Kansas City Center
Thu 04:32:24 PM 39.9806 -90.9064 91° East 478 550 47,000  Level Kansas City Center
Thu 04:33:26 PM 39.9772 -90.7331 91° East 479 551 47,000  Level Kansas City Center
Thu 04:34:26 PM 39.9739 -90.5278 91° East 477 549 47,000  Level Kansas City Center
Thu 04:35:31 PM 39.9697 -90.3553 92° East 477 549 47,000  Level Kansas City Center
Thu 04:36:31 PM 39.9658 -90.1825 92° East 479 551 47,000  Level Kansas City Center
Thu 04:37:35 PM 39.9619 -90.0089 92° East 481 554 47,000  Level Kansas City Center
Thu 04:38:36 PM 39.9569 -89.8367 92° East 481 554 47,000  Level Kansas City Center
Thu 04:39:37 PM 39.9511 -89.6289 92° East 480 552 47,000  Level Kansas City Center
Thu 04:40:41 PM 39.9467 -89.4575 92° East 477 549 47,000  Level Kansas City Center
Thu 04:41:42 PM 39.9414 -89.2847 92° East 479 551 47,000  Level Kansas City Center
Thu 04:42:45 PM 39.9356 -89.1108 92° East 481 554 47,000  Level Kansas City Center
Thu 04:43:22 PM 39.9317 -89.0072 93° East 484 557 47,000  Level Chicago Center
Thu 04:44:24 PM 39.9247 -88.7972 92° East 485 558 47,000  Level Chicago Center
Thu 04:45:27 PM 39.9192 -88.6214 92° East 488 562 47,000  Level Chicago Center
Thu 04:46:29 PM 39.9119 -88.4444 93° East 490 564 47,000  Level Chicago Center
Thu 04:47:31 PM 39.9042 -88.2683 93° East 488 562 47,000 -145 Level Chicago Center
Thu 04:48:33 PM 39.9006 -88.0942 91° East 488 562 46,700 -1,113 Descending Chicago Center
Thu 04:49:35 PM 39.9531 -87.9331 67° East 489 563 44,700 -2,233 Descending Chicago Center
Thu 04:50:42 PM 40.0297 -87.7369 63° Northeast 501 577 41,900 -2,233 Descending Indianapolis Center
Thu 04:51:44 PM 40.0947 -87.5681 63° Northeast 519 597 39,900 -2,017 Descending Indianapolis Center
Thu 04:52:41 PM 40.1600 -87.4017 63° Northeast 519 597 37,900 -2,017 Descending Chicago Center
Thu 04:53:43 PM 40.2242 -87.2344 63° Northeast 517 595 35,900 -1,887 Descending Chicago Center
Thu 04:54:45 PM 40.2911 -87.0606 63° Northeast 528 608 34,000 -1,392 Descending Chicago Center
Thu 04:55:48 PM 40.3594 -86.8797 64° Northeast 547 629 33,000 -480 Descending Chicago Center
Thu 04:56:50 PM 40.4414 -86.6625 64° Northeast 551 634 33,000  Level Chicago Center
Thu 04:57:52 PM 40.5089 -86.4833 64° Northeast 548 631 33,000  Level Chicago Center
Thu 04:58:54 PM 40.5767 -86.3031 64° Northeast 547 629 33,000  Level Chicago Center
Thu 04:59:56 PM 40.6414 -86.1233 65° Northeast 544 626 33,000 -97 Level Chicago Center
Thu 05:00:58 PM 40.7064 -85.9467 64° Northeast 545 627 32,800 -1,742 Descending Chicago Center
Thu 05:02:00 PM 40.7833 -85.7356 64° Northeast 537 618 29,400 -3,097 Descending Chicago Center
Thu 05:03:02 PM 40.8447 -85.5642 65° Northeast 522 601 26,400 -2,661 Descending Chicago Center
Thu 05:04:04 PM 40.9053 -85.3953 65° Northeast 514 592 23,900 -1,790 Descending Chicago Center
Thu 05:05:06 PM 40.9614 -85.2353 65° Northeast 491 565 22,700 -1,200 Descending Chicago Center
Thu 05:06:09 PM 41.0503 -85.1089 47° Northeast 478 550 21,400 -816 Descending Chicago Center
Thu 05:07:11 PM 41.1756 -84.9764 39° Northeast 482 555 21,000 -194 Descending Chicago Center
Thu 05:08:13 PM 41.2767 -84.8672 39° Northeast 475 547 21,000  Level Chicago Center
Thu 05:09:15 PM 41.3775 -84.7592 39° Northeast 471 542 21,000 -48 Level Chicago Center
Thu 05:10:17 PM 41.4781 -84.6519 39° Northeast 468 539 20,900 -1,065 Descending Chicago Center
Thu 05:11:19 PM 41.5797 -84.5403 39° Northeast 475 547 18,800 -2,071 Descending Chicago Center
Thu 05:12:10 PM 41.6767 -84.4256 41° Northeast 460 529 17,000 -2,000 Descending Cleveland Center
Thu 05:13:10 PM 41.7378 -84.2817 60° Northeast 440 506 15,100 -1,891 Descending Cleveland Center
Thu 05:13:42 PM 41.7608 -84.2078 67° East 437 503 14,100 -1,875 Descending Cleveland Center
Thu 05:14:30 PM 41.8083 -84.0878 62° Northeast 426 490 12,600 -1,432 Descending Cleveland Center
Thu 05:15:10 PM 41.8397 -84.0172 59° Northeast 422 486 12,000 -360 Descending Cleveland Center
Thu 05:16:10 PM 41.9036 -83.9033 53° Northeast 399 459 12,000  Level Cleveland Center
Thu 05:17:10 PM 41.9628 -83.7975 53° Northeast 370 426 12,000  Level Cleveland Center
Thu 05:18:10 PM 41.9850 -83.6700 77° East 345 397 12,000  Level Cleveland Center
Thu 05:18:40 PM 41.9811 -83.5806 93° East 368 423 12,000  Level Cleveland Center
Thu 05:19:10 PM 41.9911 -83.5167 78° East 349 402 12,000 -295 Level Cleveland Center
Thu 05:19:41 PM 42.0158 -83.4508 63° Northeast 382 440 11,700 -652 Descending Cleveland Center
Thu 05:20:42 PM 42.0689 -83.3272 60° Northeast 402 463 11,000 -362 Descending Cleveland Center
Thu 05:21:37 PM 42.1328 -83.2739 32° Northeast 274 315 11,000 -545 Level Cleveland Center
Thu 05:22:10 PM 42.1603 -83.2556 26° Northeast 285 328 10,200 -1,935 Descending Cleveland Center
Thu 05:23:10 PM 42.2281 -83.2078 28° Northeast 259 298 8,000 -1,182 Descending Cleveland Center
Thu 05:24:27 PM 42.2781 -83.1200 52° Northeast 235 270 7,500 -1,217 Descending Cleveland Center
Thu 05:25:28 PM 42.3372 -83.0775 28° Northeast 248 285 5,200 -1,721 Descending Cleveland Center
Thu 05:26:29 PM 42.3422 -83.1311 277° West 160 184 4,000 -1,180 Descending Cleveland Center

Login

Don't have an account? Register now (free) for customized features, flight alerts, and more!